createdAt,value
2022-08-26T00:05:45.719Z,49.00
2022-08-26T00:20:37.839Z,49.48
2022-08-26T00:35:29.172Z,50.54
2022-08-26T00:50:20.533Z,51.25
2022-08-26T01:05:12.131Z,51.80
2022-08-26T01:20:11.497Z,52.39
2022-08-26T01:35:06.240Z,53.11
2022-08-26T01:49:58.277Z,53.30
2022-08-26T02:04:50.264Z,54.18
2022-08-26T02:19:45.522Z,55.58
2022-08-26T02:34:37.005Z,56.03
2022-08-26T02:49:27.824Z,56.45
2022-08-26T03:04:19.945Z,57.94
2022-08-26T03:19:11.850Z,58.82
2022-08-26T03:34:03.459Z,60.21
2022-08-26T03:48:54.670Z,61.24
2022-08-26T04:33:46.668Z,60.08
2022-08-26T04:48:38.318Z,60.30
2022-08-26T05:03:30.522Z,60.22
2022-08-26T05:18:22.819Z,60.14
2022-08-26T05:33:13.399Z,60.32
2022-08-26T05:48:07.097Z,60.79
2022-08-26T06:03:01.834Z,61.14
2022-08-26T06:17:54.087Z,61.43
2022-08-26T06:32:46.345Z,61.59
2022-08-26T06:47:38.528Z,60.79
2022-08-26T07:02:31.410Z,60.13
2022-08-26T07:17:24.979Z,59.25
2022-08-26T07:32:17.100Z,58.85
2022-08-26T07:47:10.148Z,59.12
2022-08-26T08:02:02.318Z,58.23
2022-08-26T08:16:54.744Z,58.25
2022-08-26T08:31:56.917Z,57.61
2022-08-26T08:46:37.301Z,56.29
2022-08-26T09:01:53.893Z,54.99
2022-08-26T09:16:49.959Z,53.59
2022-08-26T09:31:43.186Z,51.74
2022-08-26T09:46:36.807Z,50.83
2022-08-26T10:01:30.190Z,48.61
2022-08-26T10:16:23.077Z,49.13
2022-08-26T10:31:29.383Z,46.68
2022-08-26T10:46:27.581Z,46.65
2022-08-26T11:01:42.464Z,45.19
2022-08-26T11:16:43.376Z,45.00
2022-08-26T11:31:40.035Z,43.09
2022-08-26T11:46:36.106Z,41.87
2022-08-26T12:01:31.804Z,39.55
2022-08-26T12:16:28.255Z,39.62
2022-08-26T12:31:39.726Z,38.50
2022-08-26T12:46:38.385Z,36.64
2022-08-26T13:01:36.898Z,36.08
2022-08-26T13:16:34.798Z,34.50
2022-08-26T13:31:27.962Z,34.62
2022-08-26T13:46:20.515Z,37.64
2022-08-26T14:01:10.747Z,39.30
2022-08-26T14:16:01.836Z,40.34
2022-08-26T14:30:54.509Z,38.68
2022-08-26T14:45:48.176Z,38.71
2022-08-26T15:00:40.369Z,40.23
2022-08-26T15:15:32.074Z,42.39
2022-08-26T15:30:22.454Z,44.60
2022-08-26T15:45:13.881Z,46.01
2022-08-26T16:00:05.679Z,46.21
2022-08-26T16:14:57.467Z,45.35
2022-08-26T16:29:49.549Z,46.03
2022-08-26T16:44:46.658Z,45.93
2022-08-26T16:59:41.985Z,52.26
2022-08-26T17:14:29.184Z,62.76
2022-08-26T17:29:19.674Z,70.44
2022-08-26T17:44:10.552Z,72.84
2022-08-26T17:59:04.075Z,74.81
2022-08-26T18:43:35.059Z,80.28
2022-08-26T18:58:27.903Z,97.25
2022-08-26T19:13:17.267Z,100.00
2022-08-26T19:28:12.351Z,100.00
2022-08-26T19:43:09.273Z,100.00
2022-08-26T19:58:08.314Z,100.00
2022-08-26T20:12:55.864Z,100.00
2022-08-26T20:27:48.715Z,100.00
2022-08-26T20:42:40.908Z,100.00
2022-08-26T20:57:33.638Z,100.00
2022-08-26T21:12:30.201Z,97.94
2022-08-26T21:27:26.083Z,100.00
2022-08-26T21:42:10.180Z,100.00
2022-08-26T21:57:02.443Z,100.00
2022-08-26T22:11:54.877Z,100.00
2022-08-26T22:26:46.639Z,100.00
2022-08-26T22:41:39.462Z,100.00
2022-08-26T22:56:31.468Z,100.00
2022-08-26T23:11:23.526Z,100.00
2022-08-26T23:26:17.741Z,100.00
2022-08-26T23:41:08.811Z,100.00
2022-08-26T23:56:01.288Z,100.00
